Time;durP1;ratioP1;P1;durP2;ratioP2;P2;SDS_P1;SDS_P2;PMS_P1;PMS_P2;Temp;Humidity;BMP_temperature;BMP_pressure;BME280_temperature;BME280_humidity;BME280_pressure;Samples;Min_cycle;Max_cycle;Signal;HPM_P1;HPM_P2
2023/08/05 00:01:10;;;;;;;2.15;1.08;;;;;;;34.07;27.36;101100.47;4954103;28;20146;-78
2023/08/05 00:03:39;;;;;;;4.28;1.00;;;;;;;33.90;26.77;101105.09;4954845;28;20051;-83
2023/08/05 00:06:07;;;;;;;1.75;1.02;;;;;;;33.77;27.51;101102.31;4953345;28;20051;-80
2023/08/05 00:08:39;;;;;;;1.52;1.05;;;;;;;33.58;27.68;101112.44;4954999;28;20043;-80
2023/08/05 00:11:07;;;;;;;2.22;0.80;;;;;;;33.38;27.09;101108.28;4955502;28;20047;-80
2023/08/05 00:13:36;;;;;;;0.93;0.77;;;;;;;33.18;26.82;101110.34;4953728;28;20054;-84
2023/08/05 00:16:06;;;;;;;2.22;0.90;;;;;;;33.04;27.28;101118.31;4957003;28;20106;-84
2023/08/05 00:18:35;;;;;;;2.45;1.20;;;;;;;32.92;27.90;101116.38;4961977;28;20061;-89
2023/08/05 00:21:13;;;;;;;1.30;0.80;;;;;;;32.79;28.75;101112.69;4959405;28;20043;-87
2023/08/05 00:23:42;;;;;;;3.10;1.23;;;;;;;32.71;28.11;101111.31;4956416;28;20047;-83
2023/08/05 00:26:11;;;;;;;3.15;0.93;;;;;;;32.73;28.99;101109.41;4957753;28;20055;-88
2023/08/05 00:28:39;;;;;;;1.25;1.08;;;;;;;32.79;28.53;101107.31;4959250;28;20050;-86
2023/08/05 00:31:11;;;;;;;4.35;1.10;;;;;;;32.90;28.65;101110.25;4959900;28;20517;-85
2023/08/05 00:33:40;;;;;;;1.02;0.80;;;;;;;32.97;29.13;101106.25;4958393;28;20510;-82
2023/08/05 00:36:08;;;;;;;2.90;0.90;;;;;;;33.07;28.88;101098.53;4961974;28;20046;-83
2023/08/05 00:38:37;;;;;;;2.08;0.98;;;;;;;33.12;27.13;101108.06;4959554;28;20043;-88
2023/08/05 00:41:05;;;;;;;2.50;0.93;;;;;;;33.19;28.06;101108.53;4958893;28;20490;-78
2023/08/05 00:43:41;;;;;;;1.35;1.13;;;;;;;33.21;28.02;101103.06;4961241;28;20051;-79
2023/08/05 00:46:12;;;;;;;1.83;1.08;;;;;;;33.25;27.89;101104.63;4953204;28;20047;-82
2023/08/05 00:48:41;;;;;;;1.27;0.95;;;;;;;33.25;28.18;101107.31;4954920;28;20519;-80
2023/08/05 00:51:12;;;;;;;1.27;0.80;;;;;;;33.26;27.48;101104.53;4947818;28;20059;-85
2023/08/05 00:53:41;;;;;;;1.90;0.95;;;;;;;33.23;27.87;101087.75;4955928;28;20134;-81
2023/08/05 00:56:10;;;;;;;1.95;0.93;;;;;;;33.27;28.62;101092.84;4956884;28;20062;-83
2023/08/05 00:58:39;;;;;;;1.40;0.90;;;;;;;33.20;28.69;101085.28;4953928;28;20047;-82
2023/08/05 01:01:22;;;;;;;2.63;1.00;;;;;;;33.18;28.19;101088.91;4955068;28;20055;-81
2023/08/05 01:03:51;;;;;;;1.40;1.00;;;;;;;33.10;27.88;101087.63;4955416;28;20051;-85
2023/08/05 01:06:22;;;;;;;1.48;1.10;;;;;;;33.01;27.85;101088.16;4958403;28;20055;-87
2023/08/05 01:08:52;;;;;;;2.75;0.70;;;;;;;32.99;28.05;101082.91;4971224;28;20043;-86
2023/08/05 01:11:20;;;;;;;1.50;0.90;;;;;;;32.98;27.82;101073.09;4955137;28;20059;-84
2023/08/05 01:13:49;;;;;;;0.80;0.80;;;;;;;32.97;27.69;101074.06;4957519;28;20513;-87
2023/08/05 01:16:19;;;;;;;1.13;0.80;;;;;;;32.97;29.30;101084.81;4959972;28;20047;-84
2023/08/05 01:18:48;;;;;;;1.95;1.17;;;;;;;32.95;28.15;101078.66;4957628;28;20043;-85
2023/08/05 01:21:23;;;;;;;1.60;0.98;;;;;;;32.95;28.79;101082.19;4951508;28;20039;-84
2023/08/05 01:24:02;;;;;;;2.40;1.10;;;;;;;32.95;28.75;101081.34;4956667;28;20223;-84
2023/08/05 01:26:32;;;;;;;3.15;0.98;;;;;;;32.90;29.21;101083.44;4953702;28;20047;-84
2023/08/05 01:29:03;;;;;;;1.42;0.77;;;;;;;32.82;29.38;101075.84;4945148;28;20127;-82
2023/08/05 01:31:34;;;;;;;1.63;1.00;;;;;;;32.76;29.74;101074.38;4956847;28;20074;-83
2023/08/05 01:34:03;;;;;;;5.10;0.88;;;;;;;32.70;30.18;101072.06;4954246;28;20124;-83
2023/08/05 01:36:33;;;;;;;1.55;1.08;;;;;;;32.69;29.87;101073.03;4958750;28;20056;-84
2023/08/05 01:39:05;;;;;;;1.33;1.10;;;;;;;32.65;29.95;101074.16;4961987;28;20592;-82
2023/08/05 01:41:35;;;;;;;1.13;1.00;;;;;;;32.65;29.60;101075.97;4956829;28;20508;-85
2023/08/05 01:44:04;;;;;;;3.25;0.98;;;;;;;32.65;29.19;101076.84;4965796;28;20058;-84
2023/08/05 01:46:33;;;;;;;5.35;1.13;;;;;;;32.63;28.94;101080.56;4954188;28;20077;-83
2023/08/05 01:49:01;;;;;;;1.60;1.00;;;;;;;32.58;29.44;101078.16;4954527;28;20421;-85
2023/08/05 01:51:30;;;;;;;1.20;0.70;;;;;;;32.56;29.43;101074.69;4964456;28;20404;-83
2023/08/05 01:53:59;;;;;;;1.30;1.02;;;;;;;32.56;29.57;101069.31;4952657;28;20449;-83
2023/08/05 01:56:27;;;;;;;1.73;1.10;;;;;;;32.52;29.88;101078.50;4952664;28;20047;-82
2023/08/05 01:58:58;;;;;;;1.52;1.20;;;;;;;32.45;29.26;101072.59;4956309;28;20116;-86
2023/08/05 02:01:44;;;;;;;1.15;0.98;;;;;;;32.33;29.65;101074.16;4954685;28;20058;-87
2023/08/05 02:04:13;;;;;;;1.67;1.10;;;;;;;32.19;29.89;101082.09;4953620;28;20548;-82
2023/08/05 02:06:42;;;;;;;1.30;0.90;;;;;;;32.04;29.12;101077.59;4947710;28;20428;-81
2023/08/05 02:09:13;;;;;;;1.90;0.90;;;;;;;31.94;28.83;101072.72;4954202;28;20060;-82
2023/08/05 02:11:42;;;;;;;1.83;1.10;;;;;;;31.89;28.79;101084.66;4953150;28;20054;-81
2023/08/05 02:14:12;;;;;;;1.67;1.00;;;;;;;31.83;28.94;101077.78;4954367;28;20497;-81
2023/08/05 02:16:41;;;;;;;1.17;0.85;;;;;;;31.80;29.05;101077.97;4957467;28;20043;-85
2023/08/05 02:19:09;;;;;;;3.30;1.00;;;;;;;31.72;28.35;101081.03;4951726;28;20067;-80
2023/08/05 02:21:38;;;;;;;1.60;1.02;;;;;;;31.67;28.45;101079.59;4941651;28;20118;-84
2023/08/05 02:24:09;;;;;;;1.45;0.82;;;;;;;31.59;28.55;101079.13;4936750;28;20059;-84
2023/08/05 02:26:38;;;;;;;1.70;0.80;;;;;;;31.51;27.58;101083.06;4949030;28;20085;-83
2023/08/05 02:29:06;;;;;;;2.03;1.02;;;;;;;31.44;27.69;101086.16;4945415;28;20623;-83
2023/08/05 02:31:37;;;;;;;1.73;0.93;;;;;;;31.35;28.02;101087.47;4942815;28;20056;-82
2023/08/05 02:34:05;;;;;;;2.67;1.10;;;;;;;31.33;28.46;101085.81;4952887;28;20039;-82
2023/08/05 02:36:34;;;;;;;5.15;1.35;;;;;;;31.27;28.25;101087.03;4954426;28;20047;-82
2023/08/05 02:39:02;;;;;;;1.75;1.20;;;;;;;31.23;28.01;101088.13;4949866;28;20043;-85
2023/08/05 02:41:31;;;;;;;1.30;1.00;;;;;;;31.18;28.98;101096.38;4949891;28;20047;-84
2023/08/05 02:44:03;;;;;;;3.60;1.08;;;;;;;31.09;28.61;101095.03;4948584;28;20079;-84
2023/08/05 02:46:32;;;;;;;2.55;1.38;;;;;;;31.00;29.07;101090.16;4946429;28;20123;-85
2023/08/05 02:49:02;;;;;;;3.03;0.90;;;;;;;30.92;28.55;101102.16;4956718;28;20057;-86
2023/08/05 02:51:30;;;;;;;1.52;1.13;;;;;;;30.86;28.73;101092.66;4957584;28;20102;-84
2023/08/05 02:54:00;;;;;;;1.25;0.90;;;;;;;30.83;28.79;101093.66;4961036;28;20055;-86
2023/08/05 02:56:29;;;;;;;3.35;1.10;;;;;;;30.81;28.66;101091.97;4957795;28;20043;-85
2023/08/05 02:58:57;;;;;;;1.85;1.05;;;;;;;30.74;29.50;101096.78;4955339;28;20047;-85
2023/08/05 03:01:26;;;;;;;1.23;1.00;;;;;;;30.67;29.57;101096.22;4952099;28;20047;-84
2023/08/05 03:03:54;;;;;;;2.55;1.13;;;;;;;30.54;29.17;101094.22;4951783;28;20055;-83
2023/08/05 03:06:25;;;;;;;1.20;1.08;;;;;;;30.46;29.05;101090.09;4953121;28;20457;-83
2023/08/05 03:08:54;;;;;;;1.80;1.10;;;;;;;30.39;30.32;101093.16;4944653;28;20080;-84
2023/08/05 03:11:23;;;;;;;1.75;1.25;;;;;;;30.34;29.80;101093.38;4949644;28;20047;-83
2023/08/05 03:13:51;;;;;;;2.15;1.20;;;;;;;30.27;30.19;101095.47;4947361;28;20501;-86
2023/08/05 03:16:20;;;;;;;2.53;1.20;;;;;;;30.22;30.33;101100.13;4948069;28;20047;-80
2023/08/05 03:18:48;;;;;;;2.72;1.00;;;;;;;30.14;30.63;101099.59;4963429;28;20047;-86
2023/08/05 03:21:17;;;;;;;2.38;1.08;;;;;;;30.05;30.17;101097.38;4950774;28;20055;-84
2023/08/05 03:23:47;;;;;;;3.17;1.10;;;;;;;29.99;30.60;101100.34;4944457;28;20056;-87
2023/08/05 03:26:16;;;;;;;1.40;1.00;;;;;;;29.92;30.67;101109.56;4970563;28;20063;-86
2023/08/05 03:28:44;;;;;;;2.85;0.80;;;;;;;29.82;30.57;101115.28;4958822;28;20048;-85
2023/08/05 03:31:13;;;;;;;3.42;1.00;;;;;;;29.72;30.88;101114.00;4950278;28;20055;-87
2023/08/05 03:33:43;;;;;;;1.63;1.02;;;;;;;29.62;30.99;101112.66;4952508;28;20055;-86
2023/08/05 03:36:15;;;;;;;2.47;1.00;;;;;;;29.53;31.56;101119.25;4963189;28;20493;-90
2023/08/05 03:38:43;;;;;;;1.10;0.90;;;;;;;29.44;31.77;101115.19;4963923;28;20062;-84
2023/08/05 03:41:16;;;;;;;2.72;1.00;;;;;;;29.35;31.84;101112.06;4955703;28;20542;-85
2023/08/05 03:43:45;;;;;;;3.05;1.33;;;;;;;29.26;31.92;101107.13;4956296;28;20046;-86
2023/08/05 03:46:13;;;;;;;1.98;1.10;;;;;;;29.16;31.78;101106.63;4954916;28;20494;-88
2023/08/05 03:48:42;;;;;;;2.67;1.10;;;;;;;29.08;32.18;101114.09;4954096;28;20046;-88
2023/08/05 03:51:10;;;;;;;1.25;0.85;;;;;;;28.95;32.15;101114.56;4960701;28;20083;-81
2023/08/05 03:53:39;;;;;;;2.15;1.02;;;;;;;28.85;32.53;101115.88;4950438;28;20050;-85
2023/08/05 03:56:07;;;;;;;2.95;1.23;;;;;;;28.77;34.21;101113.56;4943729;28;20395;-82
2023/08/05 03:58:37;;;;;;;1.88;0.90;;;;;;;28.66;33.55;101109.59;4944210;28;20801;-84
2023/08/05 04:01:06;;;;;;;1.33;0.95;;;;;;;28.57;33.21;101111.69;4946341;28;20485;-85
2023/08/05 04:03:36;;;;;;;1.30;0.90;;;;;;;28.49;33.41;101113.78;4941791;28;20054;-83
2023/08/05 04:06:05;;;;;;;1.50;1.13;;;;;;;28.40;34.95;101114.09;4948017;28;20099;-85
2023/08/05 04:08:34;;;;;;;1.77;1.05;;;;;;;28.31;34.03;101115.34;4940341;28;20146;-82
2023/08/05 04:11:02;;;;;;;2.60;1.20;;;;;;;28.24;35.04;101124.47;4946680;28;20047;-81
2023/08/05 04:13:32;;;;;;;2.83;1.00;;;;;;;28.11;35.21;101126.75;4945821;28;20055;-84
2023/08/05 04:16:03;;;;;;;2.22;1.10;;;;;;;28.02;35.44;101137.75;4945056;29;20055;-82
2023/08/05 04:18:32;;;;;;;1.25;1.00;;;;;;;27.91;34.86;101131.94;4947732;28;20043;-86
2023/08/05 04:21:10;;;;;;;;;;;;;;;;;;;;;
2023/08/05 04:24:19;;;;;;;2.27;1.00;;;;;;;27.75;35.18;101144.91;4823164;27;8952773;-82
2023/08/05 04:26:48;;;;;;;2.17;0.90;;;;;;;27.69;34.68;101143.31;5141802;27;20133;-83
2023/08/05 04:29:18;;;;;;;2.17;0.93;;;;;;;27.64;34.92;101150.59;5137492;27;20046;-82
2023/08/05 04:31:48;;;;;;;1.27;0.82;;;;;;;27.52;35.37;101151.88;5144902;27;20059;-84
2023/08/05 04:34:16;;;;;;;1.60;1.10;;;;;;;27.45;36.76;101154.81;5136512;27;20494;-84
2023/08/05 04:36:50;;;;;;;0.98;0.63;;;;;;;27.37;34.76;101165.69;5144989;27;20039;-82
2023/08/05 04:39:21;;;;;;;1.88;1.00;;;;;;;27.30;35.91;101167.69;5144136;27;20093;-84
2023/08/05 04:41:49;;;;;;;1.35;0.90;;;;;;;27.23;34.52;101181.25;5129195;27;20043;-80
2023/08/05 04:44:18;;;;;;;1.30;0.88;;;;;;;27.13;34.75;101176.19;5135383;27;20043;-84
2023/08/05 04:46:48;;;;;;;1.70;0.80;;;;;;;27.13;34.62;101188.63;5142447;27;20085;-87
2023/08/05 04:49:18;;;;;;;2.28;0.88;;;;;;;27.09;34.45;101179.88;5147598;27;20053;-83
2023/08/05 04:51:47;;;;;;;5.53;1.10;;;;;;;27.07;34.29;101187.00;5143507;27;20059;-86
2023/08/05 04:54:15;;;;;;;1.23;0.90;;;;;;;27.05;34.91;101188.88;5145488;27;20061;-87
2023/08/05 04:56:46;;;;;;;1.25;0.90;;;;;;;27.03;35.89;101200.44;5135058;27;20047;-84
2023/08/05 04:59:17;;;;;;;1.20;0.80;;;;;;;26.97;34.20;101190.91;5140004;27;20628;-86
2023/08/05 05:01:45;;;;;;;2.20;0.90;;;;;;;26.92;34.52;101201.66;5132373;27;20054;-84
2023/08/05 05:04:14;;;;;;;2.85;0.80;;;;;;;26.90;33.39;101199.97;5130152;27;20058;-82
2023/08/05 05:06:42;;;;;;;1.52;0.88;;;;;;;26.86;33.53;101199.19;5143178;27;20105;-84
2023/08/05 05:09:11;;;;;;;2.42;1.00;;;;;;;26.83;34.46;101194.00;5135937;27;20069;-82
2023/08/05 05:11:39;;;;;;;0.75;0.70;;;;;;;26.80;34.32;101190.53;5146215;27;20492;-86
2023/08/05 05:14:09;;;;;;;0.88;0.70;;;;;;;26.76;33.70;101200.41;5136157;27;20058;-87
2023/08/05 05:16:38;;;;;;;0.90;0.70;;;;;;;26.73;33.97;101198.72;5142052;27;20047;-86
2023/08/05 05:19:07;;;;;;;5.28;0.85;;;;;;;26.69;33.49;101198.88;5143586;27;20126;-85
2023/08/05 05:21:37;;;;;;;1.77;0.80;;;;;;;26.60;33.19;101196.50;5142517;27;20154;-84
2023/08/05 05:24:06;;;;;;;1.35;0.70;;;;;;;26.52;33.21;101196.66;5143030;27;20051;-82
2023/08/05 05:26:34;;;;;;;0.88;0.63;;;;;;;26.45;33.76;101203.94;5134717;27;20123;-86
2023/08/05 05:29:03;;;;;;;1.00;0.80;;;;;;;26.42;33.86;101203.19;5134059;27;20051;-82
2023/08/05 05:31:33;;;;;;;0.80;0.65;;;;;;;26.37;33.96;101200.66;5141210;27;20488;-88
2023/08/05 05:34:02;;;;;;;6.13;0.73;;;;;;;26.35;34.34;101213.09;5127878;27;20107;-84
2023/08/05 05:36:30;;;;;;;1.35;0.80;;;;;;;26.30;34.32;101207.91;5125165;27;20032;-85
2023/08/05 05:38:59;;;;;;;1.00;0.77;;;;;;;26.23;33.79;101203.72;5134461;27;20138;-87
2023/08/05 05:41:27;;;;;;;1.42;0.93;;;;;;;26.16;34.07;101207.47;5120053;27;20054;-84
2023/08/05 05:43:58;;;;;;;1.77;0.70;;;;;;;26.12;34.69;101216.41;5134333;27;20754;-83
2023/08/05 05:46:31;;;;;;;1.80;0.70;;;;;;;26.10;34.71;101215.56;5125985;27;20091;-81
2023/08/05 05:49:03;;;;;;;0.93;0.60;;;;;;;26.09;34.65;101217.38;5130760;27;20040;-85
2023/08/05 05:51:31;;;;;;;1.02;0.88;;;;;;;26.09;35.36;101219.13;5123432;27;20078;-85
2023/08/05 05:54:02;;;;;;;1.02;0.70;;;;;;;26.03;35.57;101217.53;5124222;27;20047;-87
2023/08/05 05:56:34;;;;;;;3.58;0.77;;;;;;;25.97;35.16;101212.38;5144959;27;20090;-86
2023/08/05 05:59:02;;;;;;;3.03;0.80;;;;;;;25.89;35.10;101203.78;5138508;27;20043;-91
2023/08/05 06:01:31;;;;;;;1.08;0.85;;;;;;;25.82;35.58;101199.53;5138899;27;20035;-89
2023/08/05 06:04:02;;;;;;;1.08;0.70;;;;;;;25.77;35.23;101198.75;5143945;27;20041;-89
2023/08/05 06:06:31;;;;;;;2.25;1.25;;;;;;;25.73;37.22;101197.97;5138595;27;20074;-89
2023/08/05 06:09:00;;;;;;;1.02;0.93;;;;;;;25.66;36.47;101186.66;5145355;27;20077;-88
2023/08/05 06:11:29;;;;;;;1.77;0.82;;;;;;;25.64;36.14;101193.78;5140897;27;20059;-88
2023/08/05 06:13:58;;;;;;;1.20;0.90;;;;;;;25.57;36.25;101189.56;5120103;27;20367;-86
2023/08/05 06:16:30;;;;;;;2.08;1.02;;;;;;;25.52;36.30;101185.28;5128121;27;20046;-89
2023/08/05 06:19:00;;;;;;;2.33;0.95;;;;;;;25.45;36.08;101198.69;5131969;27;20054;-87
2023/08/05 06:21:29;;;;;;;2.38;0.88;;;;;;;25.39;36.48;101198.84;5140613;27;20047;-89
2023/08/05 06:23:58;;;;;;;1.45;0.90;;;;;;;25.36;37.17;101200.69;5136886;27;20080;-88
2023/08/05 06:26:26;;;;;;;1.30;0.98;;;;;;;25.31;37.19;101189.34;5141067;27;20044;-87
2023/08/05 06:28:55;;;;;;;1.35;0.70;;;;;;;25.28;37.19;101188.50;5126056;27;20075;-88
2023/08/05 06:31:23;;;;;;;2.13;0.85;;;;;;;25.22;37.17;101193.97;5124063;27;20121;-86
2023/08/05 06:33:52;;;;;;;1.25;0.77;;;;;;;25.18;37.56;101194.94;5125028;27;20047;-87
2023/08/05 06:36:22;;;;;;;3.40;0.93;;;;;;;25.15;37.83;101194.09;5127600;27;20039;-89
2023/08/05 06:38:51;;;;;;;3.15;0.80;;;;;;;25.10;38.24;101196.88;5126666;27;20039;-89
2023/08/05 06:41:20;;;;;;;3.13;0.70;;;;;;;25.05;38.08;101188.16;5125614;27;20069;-84
2023/08/05 06:43:48;;;;;;;1.38;0.88;;;;;;;24.99;38.08;101189.19;5121682;27;20107;-86
2023/08/05 06:46:17;;;;;;;0.90;0.70;;;;;;;24.98;38.25;101191.88;5129975;27;20102;-87
2023/08/05 06:48:45;;;;;;;0.70;0.70;;;;;;;24.96;38.68;101183.09;5134903;27;20050;-87
2023/08/05 06:51:14;;;;;;;1.48;0.80;;;;;;;24.95;38.94;101186.66;5131131;27;20071;-88
2023/08/05 06:53:44;;;;;;;2.63;1.02;;;;;;;24.93;39.02;101188.47;5134847;27;20061;-85
2023/08/05 06:56:13;;;;;;;1.90;0.85;;;;;;;24.88;39.04;101192.09;5134975;27;20050;-89
2023/08/05 06:58:42;;;;;;;1.63;0.85;;;;;;;24.83;39.48;101183.38;5118758;27;20043;-87
2023/08/05 07:01:10;;;;;;;2.10;0.73;;;;;;;24.79;39.40;101184.34;5127756;27;20048;-88
2023/08/05 07:03:40;;;;;;;1.92;1.00;;;;;;;24.75;39.87;101190.63;5131581;27;20063;-86
2023/08/05 07:06:09;;;;;;;0.88;0.70;;;;;;;24.74;40.04;101196.81;5124276;27;20051;-86
2023/08/05 07:08:38;;;;;;;1.33;0.80;;;;;;;24.72;39.64;101190.69;5123166;27;20039;-86
2023/08/05 07:11:08;;;;;;;0.82;0.73;;;;;;;24.66;39.50;101183.75;5122577;27;20042;-88
2023/08/05 07:13:37;;;;;;;0.93;0.80;;;;;;;24.65;40.77;101184.66;5125206;27;20055;-88
2023/08/05 07:16:06;;;;;;;1.08;0.95;;;;;;;24.65;40.33;101178.50;5120237;27;20124;-88
2023/08/05 07:18:42;;;;;;;1.40;0.77;;;;;;;24.64;40.14;101177.63;5133632;27;20051;-87
2023/08/05 07:21:10;;;;;;;1.25;0.90;;;;;;;24.62;40.33;101181.19;5128141;27;21173;-84
2023/08/05 07:23:39;;;;;;;3.03;0.95;;;;;;;24.55;41.17;101182.25;5122209;27;20070;-87
2023/08/05 07:26:11;;;;;;;0.95;0.75;;;;;;;24.39;41.65;101182.53;5135867;27;20637;-87
2023/08/05 07:28:40;;;;;;;1.30;0.73;;;;;;;24.31;41.63;101180.97;5123597;27;20047;-86
2023/08/05 07:31:10;;;;;;;1.63;1.00;;;;;;;24.23;41.23;101178.47;5134921;27;20047;-85
2023/08/05 07:33:39;;;;;;;1.45;0.77;;;;;;;24.20;42.15;101174.13;5130341;27;20055;-83
2023/08/05 07:36:16;;;;;;;1.27;0.95;;;;;;;24.16;42.14;101180.38;5128181;27;20138;-87
2023/08/05 07:38:46;;;;;;;2.25;0.80;;;;;;;24.12;43.31;101185.75;5117036;27;20130;-86
2023/08/05 07:41:17;;;;;;;1.80;0.80;;;;;;;24.07;43.38;101184.97;5125062;27;20038;-84
2023/08/05 07:43:46;;;;;;;1.63;0.80;;;;;;;24.00;42.86;101174.50;5130025;27;20057;-83
2023/08/05 07:46:16;;;;;;;1.15;0.80;;;;;;;24.03;42.77;101173.59;5124846;27;20054;-86
2023/08/05 07:48:47;;;;;;;2.70;0.88;;;;;;;24.06;43.54;101172.66;5133740;27;20126;-84
2023/08/05 07:51:16;;;;;;;0.75;0.68;;;;;;;24.07;43.47;101174.41;5129898;27;20035;-85
2023/08/05 07:53:45;;;;;;;2.03;0.70;;;;;;;24.04;43.54;101172.69;5119411;27;20593;-85
2023/08/05 07:56:16;;;;;;;0.90;0.60;;;;;;;23.92;43.45;101176.44;5128251;27;20051;-85
2023/08/05 07:58:46;;;;;;;2.25;0.70;;;;;;;23.87;44.40;101180.97;5130931;27;20509;-84
2023/08/05 08:01:19;;;;;;;2.05;0.80;;;;;;;23.84;44.86;101178.34;5135488;27;20043;-84
2023/08/05 08:03:48;;;;;;;3.63;0.80;;;;;;;23.86;44.12;101175.69;5122998;27;20047;-84
2023/08/05 08:06:17;;;;;;;1.15;0.80;;;;;;;23.85;43.44;101169.53;5130974;27;20078;-83
2023/08/05 08:08:46;;;;;;;3.47;0.90;;;;;;;23.83;43.59;101166.06;5119885;27;20552;-84
2023/08/05 08:11:16;;;;;;;0.90;0.60;;;;;;;23.84;43.75;101173.06;5121072;27;20046;-83
2023/08/05 08:13:44;;;;;;;1.00;0.82;;;;;;;23.81;44.50;101174.00;5127493;27;20042;-84
2023/08/05 08:16:13;;;;;;;1.20;0.80;;;;;;;23.78;45.22;101167.91;5124677;27;20058;-86
2023/08/05 08:18:42;;;;;;;1.00;0.60;;;;;;;23.69;45.17;101168.91;5122223;27;20089;-83
2023/08/05 08:21:13;;;;;;;1.60;0.73;;;;;;;23.62;44.91;101178.72;5129276;27;20035;-85
2023/08/05 08:23:41;;;;;;;1.42;0.70;;;;;;;23.58;45.48;101177.03;5118310;27;20085;-86
2023/08/05 08:26:10;;;;;;;1.48;0.85;;;;;;;23.57;45.69;101179.69;5124782;27;20605;-85
2023/08/05 08:28:40;;;;;;;1.50;0.88;;;;;;;23.55;45.74;101181.50;5127321;27;20104;-84
2023/08/05 08:31:10;;;;;;;0.98;0.70;;;;;;;23.55;45.34;101181.50;5122863;27;20046;-84
2023/08/05 08:33:39;;;;;;;2.65;0.88;;;;;;;23.44;45.26;101168.47;5127561;27;20051;-85
2023/08/05 08:36:07;;;;;;;1.55;0.90;;;;;;;23.47;45.95;101178.13;5126288;27;20047;-85
2023/08/05 08:38:36;;;;;;;1.42;0.70;;;;;;;23.44;45.82;101186.09;5125389;28;20463;-88
2023/08/05 08:41:05;;;;;;;2.92;0.70;;;;;;;23.39;46.42;101170.34;5125840;27;20043;-86
2023/08/05 08:43:34;;;;;;;0.98;0.80;;;;;;;23.37;46.22;101164.22;5127653;27;20048;-87
2023/08/05 08:46:07;;;;;;;0.90;0.75;;;;;;;23.36;45.94;101165.09;5128204;27;20443;-86
2023/08/05 08:48:37;;;;;;;1.98;0.65;;;;;;;23.36;45.70;101165.94;5124185;27;20047;-85
2023/08/05 08:51:07;;;;;;;0.77;0.70;;;;;;;23.36;46.62;101165.09;5123718;27;20120;-84
2023/08/05 08:53:41;;;;;;;1.10;0.80;;;;;;;23.34;46.54;101167.78;5124171;27;20069;-84
2023/08/05 08:56:09;;;;;;;0.52;0.52;;;;;;;23.33;46.35;101159.88;5130034;27;20187;-84
2023/08/05 08:58:38;;;;;;;0.80;0.60;;;;;;;23.31;46.14;101161.66;5126436;27;20090;-83
2023/08/05 09:01:09;;;;;;;1.83;0.80;;;;;;;23.29;46.17;101152.88;5121330;27;20075;-84
2023/08/05 09:03:40;;;;;;;2.15;0.70;;;;;;;23.24;46.85;101160.03;5130040;27;20047;-85
2023/08/05 09:06:09;;;;;;;1.00;0.70;;;;;;;23.27;46.96;101154.69;5127206;27;20051;-85
2023/08/05 09:08:38;;;;;;;1.38;0.88;;;;;;;23.28;47.02;101149.38;5128223;27;20288;-86
2023/08/05 09:11:06;;;;;;;1.05;0.70;;;;;;;23.27;46.36;101147.63;5128354;27;20047;-86
2023/08/05 09:13:35;;;;;;;1.15;0.63;;;;;;;23.26;46.55;101145.03;5142574;27;20051;-85
2023/08/05 09:16:13;;;;;;;2.65;1.20;;;;;;;23.25;47.31;101145.91;5135211;27;20528;-86
2023/08/05 09:18:46;;;;;;;1.02;0.70;;;;;;;23.23;46.82;101147.69;5133681;27;20611;-84
2023/08/05 09:21:23;;;;;;;0.90;0.65;;;;;;;23.21;48.31;101153.91;5128354;27;20043;-86
2023/08/05 09:23:54;;;;;;;0.60;0.57;;;;;;;23.14;47.98;101160.19;5126613;27;20055;-84
2023/08/05 09:26:35;;;;;;;1.58;0.50;;;;;;;23.08;48.24;101156.75;5134453;27;20055;-84
2023/08/05 09:29:06;;;;;;;1.10;0.70;;;;;;;23.02;47.71;101162.13;5128974;27;20054;-84
2023/08/05 09:31:36;;;;;;;2.08;0.70;;;;;;;22.99;48.03;101173.59;5128746;27;20494;-85
2023/08/05 09:34:08;;;;;;;0.95;0.68;;;;;;;22.93;48.73;101177.19;5131031;27;20047;-85
2023/08/05 09:36:36;;;;;;;2.53;0.70;;;;;;;22.84;48.66;101177.31;5135880;27;20088;-86
2023/08/05 09:39:10;;;;;;;1.35;1.20;;;;;;;22.78;49.18;101180.91;5126198;27;20300;-84
2023/08/05 09:41:39;;;;;;;1.70;0.60;;;;;;;22.76;49.15;101187.97;5127475;27;20043;-84
2023/08/05 09:44:11;;;;;;;1.75;0.65;;;;;;;22.74;48.99;101195.03;5129060;27;20039;-86
2023/08/05 09:46:45;;;;;;;1.17;0.55;;;;;;;22.74;50.48;101191.53;5125385;27;20148;-85
2023/08/05 09:49:14;;;;;;;1.08;0.68;;;;;;;22.75;49.73;101188.88;5131010;27;20096;-85
2023/08/05 09:51:45;;;;;;;1.05;0.50;;;;;;;22.77;49.81;101179.19;5128807;27;20062;-85
2023/08/05 09:54:19;;;;;;;2.72;0.80;;;;;;;22.76;50.39;101180.06;5136311;27;20072;-86
2023/08/05 09:56:48;;;;;;;1.30;0.73;;;;;;;22.65;49.74;101170.53;5133475;27;20039;-83
2023/08/05 09:59:25;;;;;;;1.23;0.70;;;;;;;22.66;50.03;101181.09;5133474;27;20039;-83
2023/08/05 10:01:56;;;;;;;1.75;0.95;;;;;;;22.66;49.92;101183.72;5109116;27;20047;-84
2023/08/05 10:04:29;;;;;;;1.63;0.80;;;;;;;22.64;49.78;101189.91;5119752;27;20077;-84
2023/08/05 10:06:59;;;;;;;2.17;0.90;;;;;;;22.63;49.87;101189.06;5129642;27;20043;-86
2023/08/05 10:09:28;;;;;;;1.77;1.10;;;;;;;22.62;50.08;101187.28;5129186;27;20035;-85
2023/08/05 10:11:57;;;;;;;3.55;1.50;;;;;;;22.58;50.09;101185.59;5120160;27;20047;-84
2023/08/05 10:14:32;;;;;;;1.70;1.20;;;;;;;22.54;49.86;101187.41;5132805;27;20051;-85
2023/08/05 10:17:04;;;;;;;3.40;1.10;;;;;;;22.50;49.67;101182.19;5130685;27;20054;-85
2023/08/05 10:19:33;;;;;;;1.50;1.05;;;;;;;22.44;49.76;101182.25;5129362;27;20043;-85
2023/08/05 10:22:13;;;;;;;2.47;1.10;;;;;;;22.38;50.09;101194.63;5123358;27;20043;-84
2023/08/05 10:24:58;;;;;;;2.35;1.27;;;;;;;22.36;50.69;101188.50;5129314;27;20066;-86
2023/08/05 10:27:39;;;;;;;0.93;0.80;;;;;;;22.33;50.48;101185.91;5137489;27;20106;-87
2023/08/05 10:30:13;;;;;;;2.20;0.95;;;;;;;22.29;51.55;101183.34;5138518;27;20040;-87
2023/08/05 10:32:55;;;;;;;1.40;1.10;;;;;;;22.25;51.12;101179.84;5127881;27;20039;-86
2023/08/05 10:35:30;;;;;;;1.40;1.00;;;;;;;22.21;51.36;101180.78;5140719;27;20047;-85
2023/08/05 10:38:16;;;;;;;1.42;1.00;;;;;;;22.20;51.08;101184.28;5131089;27;20059;-84
2023/08/05 10:40:52;;;;;;;3.00;1.20;;;;;;;22.17;50.91;101176.41;5127248;27;20082;-85
2023/08/05 10:43:35;;;;;;;1.30;0.90;;;;;;;22.14;51.23;101176.44;5127936;27;20075;-83
2023/08/05 10:46:11;;;;;;;3.70;1.05;;;;;;;22.12;51.21;101178.22;5127947;27;20048;-86
2023/08/05 10:48:44;;;;;;;1.50;1.10;;;;;;;22.09;51.67;101175.63;5135196;27;20050;-85
2023/08/05 10:51:14;;;;;;;4.63;1.08;;;;;;;22.08;51.46;101168.59;5133157;27;20046;-86
2023/08/05 10:53:46;;;;;;;2.70;1.23;;;;;;;22.08;51.62;101171.22;5128550;27;20141;-85
2023/08/05 10:56:15;;;;;;;;;;;;;;;22.07;52.00;101173.00;5123007;27;20051;-84
2023/08/05 10:58:48;;;;;;;1.50;1.20;;;;;;;22.04;52.26;101170.41;5129283;27;19923;-84
2023/08/05 11:01:17;;;;;;;2.28;1.05;;;;;;;22.02;52.11;101179.22;5126234;27;20480;-84
2023/08/05 11:03:49;;;;;;;1.35;1.02;;;;;;;21.98;52.58;101172.25;5131499;27;20570;-86
2023/08/05 11:06:24;;;;;;;1.83;1.30;;;;;;;21.87;52.94;101164.44;5127491;27;20096;-87
2023/08/05 11:09:01;;;;;;;1.73;1.00;;;;;;;21.76;53.27;101167.19;5137025;27;20058;-86
2023/08/05 11:11:30;;;;;;;2.47;1.10;;;;;;;21.68;54.20;101167.25;5128691;27;20039;-86
2023/08/05 11:14:02;;;;;;;1.45;0.90;;;;;;;21.65;54.32;101163.81;5129633;27;20043;-83
2023/08/05 11:16:30;;;;;;;3.58;1.17;;;;;;;21.62;55.02;101164.69;5123551;27;20043;-85
2023/08/05 11:19:01;;;;;;;2.97;1.10;;;;;;;21.56;54.98;101162.13;5127355;27;20043;-85
2023/08/05 11:21:29;;;;;;;3.13;1.20;;;;;;;21.51;55.64;101156.91;5133517;27;20039;-86
2023/08/05 11:23:59;;;;;;;1.00;0.90;;;;;;;21.46;56.12;101157.81;5136096;27;20051;-85
2023/08/05 11:26:27;;;;;;;1.10;0.70;;;;;;;21.37;57.07;101150.84;5144452;27;20045;-86
2023/08/05 11:28:56;;;;;;;1.77;1.10;;;;;;;21.29;57.61;101147.41;5129966;27;20050;-86
2023/08/05 11:31:27;;;;;;;1.35;0.90;;;;;;;21.27;57.54;101157.94;5147386;27;20068;-88
2023/08/05 11:33:56;;;;;;;1.30;1.00;;;;;;;21.29;57.81;101161.44;5133461;27;20551;-85
2023/08/05 11:36:29;;;;;;;1.55;1.00;;;;;;;21.31;57.71;101169.34;5125036;27;20596;-83
2023/08/05 11:39:00;;;;;;;1.13;0.68;;;;;;;21.32;57.35;101169.31;5128486;27;20519;-86
2023/08/05 11:41:36;;;;;;;4.57;0.90;;;;;;;21.34;57.29;101180.69;5123957;27;20146;-85